sensor_id;sensor_type;location;lat;lon;timestamp;pressure;altitude;pressure_sealevel;temperature;humidity
39435;BME280;66825;51.880;-0.518;2023-10-09T00:01:10;101268.19;;;19.79;52.70
39435;BME280;66825;51.880;-0.518;2023-10-09T00:03:43;101270.09;;;19.79;52.72
39435;BME280;66825;51.880;-0.518;2023-10-09T00:06:10;101269.81;;;19.80;52.72
39435;BME280;66825;51.880;-0.518;2023-10-09T00:08:39;101260.78;;;19.80;52.63
39435;BME280;66825;51.880;-0.518;2023-10-09T00:11:04;101265.47;;;19.79;52.55
39435;BME280;66825;51.880;-0.518;2023-10-09T00:13:44;101267.09;;;19.80;52.67
39435;BME280;66825;51.880;-0.518;2023-10-09T00:16:21;101265.47;;;19.79;52.60
39435;BME280;66825;51.880;-0.518;2023-10-09T00:19:04;101249.72;;;19.71;52.65
39435;BME280;66825;51.880;-0.518;2023-10-09T00:21:44;101255.97;;;19.72;52.64
39435;BME280;66825;51.880;-0.518;2023-10-09T00:24:10;101195.03;;;19.33;52.70
39435;BME280;66825;51.880;-0.518;2023-10-09T00:26:40;101277.19;;;19.80;52.74
39435;BME280;66825;51.880;-0.518;2023-10-09T00:29:14;101257.84;;;19.76;52.65
39435;BME280;66825;51.880;-0.518;2023-10-09T00:31:50;101251.78;;;19.79;52.60
39435;BME280;66825;51.880;-0.518;2023-10-09T00:34:17;101258.06;;;19.80;52.69
39435;BME280;66825;51.880;-0.518;2023-10-09T00:36:45;101269.00;;;19.80;52.72
39435;BME280;66825;51.880;-0.518;2023-10-09T00:39:18;101272.56;;;19.80;52.59
39435;BME280;66825;51.880;-0.518;2023-10-09T00:42:08;101273.66;;;19.79;52.62
39435;BME280;66825;51.880;-0.518;2023-10-09T00:44:37;101270.94;;;19.79;52.53
39435;BME280;66825;51.880;-0.518;2023-10-09T00:47:12;101270.94;;;19.79;52.66
39435;BME280;66825;51.880;-0.518;2023-10-09T00:49:59;101266.25;;;19.80;52.54
39435;BME280;66825;51.880;-0.518;2023-10-09T00:52:30;101265.47;;;19.79;52.72
39435;BME280;66825;51.880;-0.518;2023-10-09T00:55:02;101153.16;;;19.18;52.55
39435;BME280;66825;51.880;-0.518;2023-10-09T00:57:55;101248.22;;;19.79;52.56
39435;BME280;66825;51.880;-0.518;2023-10-09T01:00:35;101237.06;;;19.75;52.66
39435;BME280;66825;51.880;-0.518;2023-10-09T01:03:10;101248.22;;;19.79;52.42
39435;BME280;66825;51.880;-0.518;2023-10-09T01:05:47;101234.06;;;19.77;52.56
39435;BME280;66825;51.880;-0.518;2023-10-09T01:08:31;101237.28;;;19.79;52.52
39435;BME280;66825;51.880;-0.518;2023-10-09T01:11:16;101241.94;;;19.78;52.65
39435;BME280;66825;51.880;-0.518;2023-10-09T01:13:48;101233.22;;;19.76;52.58
39435;BME280;66825;51.880;-0.518;2023-10-09T01:16:14;101231.03;;;19.78;52.61
39435;BME280;66825;51.880;-0.518;2023-10-09T01:18:43;101215.19;;;19.75;52.60
39435;BME280;66825;51.880;-0.518;2023-10-09T01:21:12;101222.81;;;19.78;52.56
39435;BME280;66825;51.880;-0.518;2023-10-09T01:23:44;101231.03;;;19.78;52.59
39435;BME280;66825;51.880;-0.518;2023-10-09T01:26:31;101224.53;;;19.74;52.57
39435;BME280;66825;51.880;-0.518;2023-10-09T01:29:14;101228.28;;;19.78;52.59
39435;BME280;66825;51.880;-0.518;2023-10-09T01:31:40;101218.84;;;19.71;52.55
39435;BME280;66825;51.880;-0.518;2023-10-09T01:34:29;101226.34;;;19.79;52.55
39435;BME280;66825;51.880;-0.518;2023-10-09T01:37:14;101216.38;;;19.69;52.58
39435;BME280;66825;51.880;-0.518;2023-10-09T01:39:55;101220.88;;;19.79;52.62
39435;BME280;66825;51.880;-0.518;2023-10-09T01:42:23;101219.28;;;19.78;52.61
39435;BME280;66825;51.880;-0.518;2023-10-09T01:44:57;101219.28;;;19.78;52.34
39435;BME280;66825;51.880;-0.518;2023-10-09T01:47:35;101202.22;;;19.67;52.59
39435;BME280;66825;51.880;-0.518;2023-10-09T01:50:04;101210.03;;;19.74;52.52
39435;BME280;66825;51.880;-0.518;2023-10-09T01:52:30;101131.97;;;19.29;52.62
39435;BME280;66825;51.880;-0.518;2023-10-09T01:54:56;101205.09;;;19.76;52.52
39435;BME280;66825;51.880;-0.518;2023-10-09T01:57:29;101199.31;;;19.77;52.47
39435;BME280;66825;51.880;-0.518;2023-10-09T01:59:55;101195.25;;;19.75;52.66
39435;BME280;66825;51.880;-0.518;2023-10-09T02:02:23;101200.16;;;19.78;52.53
39435;BME280;66825;51.880;-0.518;2023-10-09T02:05:09;101197.41;;;19.78;52.61
39435;BME280;66825;51.880;-0.518;2023-10-09T02:07:38;101209.94;;;19.79;52.53
39435;BME280;66825;51.880;-0.518;2023-10-09T02:10:13;101185.72;;;19.72;52.50
39435;BME280;66825;51.880;-0.518;2023-10-09T02:13:01;101191.94;;;19.78;52.43
39435;BME280;66825;51.880;-0.518;2023-10-09T03:24:56;101162.53;;;19.70;52.37
39435;BME280;66825;51.880;-0.518;2023-10-09T03:27:21;101172.38;;;19.71;52.65
39435;BME280;66825;51.880;-0.518;2023-10-09T03:29:47;101178.94;;;19.70;52.55
39435;BME280;66825;51.880;-0.518;2023-10-09T03:32:17;101170.22;;;19.67;52.57
39435;BME280;66825;51.880;-0.518;2023-10-09T03:34:44;101146.91;;;19.56;52.68
39435;BME280;66825;51.880;-0.518;2023-10-09T03:37:10;101161.44;;;19.71;52.72
39435;BME280;66825;51.880;-0.518;2023-10-09T03:39:47;101168.50;;;19.72;52.67
39435;BME280;66825;51.880;-0.518;2023-10-09T03:42:14;101158.75;;;19.65;52.59
39435;BME280;66825;51.880;-0.518;2023-10-09T03:44:48;101155.22;;;19.65;52.49
39435;BME280;66825;51.880;-0.518;2023-10-09T03:47:19;101157.06;;;19.70;52.65
39435;BME280;66825;51.880;-0.518;2023-10-09T03:49:50;101162.75;;;19.73;52.53
39435;BME280;66825;51.880;-0.518;2023-10-09T03:52:19;101169.31;;;19.72;52.69
39435;BME280;66825;51.880;-0.518;2023-10-09T03:54:45;101178.31;;;19.73;52.45
39435;BME280;66825;51.880;-0.518;2023-10-09T03:57:14;101148.00;;;19.55;52.48
39435;BME280;66825;51.880;-0.518;2023-10-09T03:59:47;101177.22;;;19.74;52.43
39435;BME280;66825;51.880;-0.518;2023-10-09T04:02:14;101172.88;;;19.73;52.58
39435;BME280;66825;51.880;-0.518;2023-10-09T04:04:40;101162.81;;;19.68;52.46
39435;BME280;66825;51.880;-0.518;2023-10-09T04:07:11;101178.06;;;19.74;52.45
39435;BME280;66825;51.880;-0.518;2023-10-09T04:09:36;101178.09;;;19.69;52.46
39435;BME280;66825;51.880;-0.518;2023-10-09T04:12:05;101175.69;;;19.67;52.37
39435;BME280;66825;51.880;-0.518;2023-10-09T04:14:37;101164.31;;;19.60;52.52
39435;BME280;66825;51.880;-0.518;2023-10-09T04:17:13;101186.03;;;19.71;52.47
39435;BME280;66825;51.880;-0.518;2023-10-09T04:19:49;101198.00;;;19.75;52.49
39435;BME280;66825;51.880;-0.518;2023-10-09T04:22:35;101174.50;;;19.74;52.33
39435;BME280;66825;51.880;-0.518;2023-10-09T04:25:06;101174.50;;;19.74;52.28
39435;BME280;66825;51.880;-0.518;2023-10-09T04:27:41;101171.75;;;19.74;52.46
39435;BME280;66825;51.880;-0.518;2023-10-09T04:30:07;101179.16;;;19.73;52.39
39435;BME280;66825;51.880;-0.518;2023-10-09T04:32:33;101172.59;;;19.74;52.49
39435;BME280;66825;51.880;-0.518;2023-10-09T04:35:00;101179.16;;;19.73;52.42
39435;BME280;66825;51.880;-0.518;2023-10-09T04:37:45;101179.16;;;19.73;52.52
39435;BME280;66825;51.880;-0.518;2023-10-09T04:40:20;101181.06;;;19.73;52.51
39435;BME280;66825;51.880;-0.518;2023-10-09T04:43:04;101179.16;;;19.73;52.52
39435;BME280;66825;51.880;-0.518;2023-10-09T04:45:37;101152.50;;;19.46;52.49
39435;BME280;66825;51.880;-0.518;2023-10-09T04:48:11;101179.97;;;19.74;52.47
39435;BME280;66825;51.880;-0.518;2023-10-09T04:50:36;101174.88;;;19.67;52.09
39435;BME280;66825;51.880;-0.518;2023-10-09T04:53:12;101181.06;;;19.73;52.59
39435;BME280;66825;51.880;-0.518;2023-10-09T04:55:40;101179.16;;;19.73;52.40
39435;BME280;66825;51.880;-0.518;2023-10-09T04:58:09;101177.22;;;19.74;52.34
39435;BME280;66825;51.880;-0.518;2023-10-09T05:00:49;101179.97;;;19.74;52.56
39435;BME280;66825;51.880;-0.518;2023-10-09T05:03:28;101175.16;;;19.65;52.38
39435;BME280;66825;51.880;-0.518;2023-10-09T05:05:55;101186.53;;;19.73;52.63
39435;BME280;66825;51.880;-0.518;2023-10-09T05:08:24;101168.06;;;19.64;52.34
39435;BME280;66825;51.880;-0.518;2023-10-09T05:11:03;101190.91;;;19.74;52.40
39435;BME280;66825;51.880;-0.518;2023-10-09T05:13:35;101198.28;;;19.73;52.37
39435;BME280;66825;51.880;-0.518;2023-10-09T05:16:14;101186.03;;;19.71;52.42
39435;BME280;66825;51.880;-0.518;2023-10-09T05:18:55;101183.78;;;19.73;52.32
39435;BME280;66825;51.880;-0.518;2023-10-09T05:21:32;101179.44;;;19.72;52.43
39435;BME280;66825;51.880;-0.518;2023-10-09T05:24:03;101175.59;;;19.73;52.40
39435;BME280;66825;51.880;-0.518;2023-10-09T05:26:48;101196.66;;;19.72;52.35
39435;BME280;66825;51.880;-0.518;2023-10-09T05:29:21;101192.31;;;19.71;52.38
39435;BME280;66825;51.880;-0.518;2023-10-09T05:31:52;101180.13;;;19.63;52.34
39435;BME280;66825;51.880;-0.518;2023-10-09T05:34:44;101204.03;;;19.72;52.40
39435;BME280;66825;51.880;-0.518;2023-10-09T05:37:26;101185.22;;;19.51;52.33
39435;BME280;66825;51.880;-0.518;2023-10-09T05:39:59;101149.63;;;19.37;52.32
39435;BME280;66825;51.880;-0.518;2023-10-09T05:42:29;101197.78;;;19.71;52.44
39435;BME280;66825;51.880;-0.518;2023-10-09T05:45:16;101201.31;;;19.72;52.30
39435;BME280;66825;51.880;-0.518;2023-10-09T05:47:45;101198.56;;;19.72;52.43
39435;BME280;66825;51.880;-0.518;2023-10-09T05:50:24;101187.63;;;19.72;52.26
39435;BME280;66825;51.880;-0.518;2023-10-09T05:52:54;101195.63;;;19.68;52.29
39435;BME280;66825;51.880;-0.518;2023-10-09T05:55:20;101231.38;;;19.72;52.29
39435;BME280;66825;51.880;-0.518;2023-10-09T05:58:05;101216.69;;;19.67;52.40
39435;BME280;66825;51.880;-0.518;2023-10-09T06:00:42;101233.63;;;19.70;52.33
39435;BME280;66825;51.880;-0.518;2023-10-09T06:03:26;101236.03;;;19.71;52.31
39435;BME280;66825;51.880;-0.518;2023-10-09T06:06:10;101233.31;;;19.71;52.32
39435;BME280;66825;51.880;-0.518;2023-10-09T06:08:43;101237.16;;;19.70;52.19
39435;BME280;66825;51.880;-0.518;2023-10-09T06:11:10;101207.03;;;19.56;52.31
39435;BME280;66825;51.880;-0.518;2023-10-09T06:14:02;101240.72;;;19.71;52.38
39435;BME280;66825;51.880;-0.518;2023-10-09T06:16:37;101235.25;;;19.71;52.42
39435;BME280;66825;51.880;-0.518;2023-10-09T06:19:10;101234.41;;;19.70;52.35
39435;BME280;66825;51.880;-0.518;2023-10-09T06:21:49;101219.66;;;19.71;52.36
39435;BME280;66825;51.880;-0.518;2023-10-09T06:24:17;101198.88;;;19.70;52.41
39435;BME280;66825;51.880;-0.518;2023-10-09T06:26:45;101195.34;;;19.70;52.35
39435;BME280;66825;51.880;-0.518;2023-10-09T06:29:26;101195.34;;;19.70;52.23
39435;BME280;66825;51.880;-0.518;2023-10-09T06:32:17;101173.19;;;19.52;52.25
39435;BME280;66825;51.880;-0.518;2023-10-09T06:34:58;101221.06;;;19.68;52.27
39435;BME280;66825;51.880;-0.518;2023-10-09T06:38:00;101238.25;;;19.69;52.20
39435;BME280;66825;51.880;-0.518;2023-10-09T06:40:29;101231.69;;;19.70;52.33
39435;BME280;66825;51.880;-0.518;2023-10-09T06:43:14;101228.16;;;19.70;52.25
39435;BME280;66825;51.880;-0.518;2023-10-09T06:45:45;101220.22;;;19.68;52.40
39435;BME280;66825;51.880;-0.518;2023-10-09T06:48:13;101231.97;;;19.68;52.39
39435;BME280;66825;51.880;-0.518;2023-10-09T06:50:58;101221.84;;;19.69;52.19
39435;BME280;66825;51.880;-0.518;2023-10-09T06:53:39;101199.41;;;19.72;52.26
39435;BME280;66825;51.880;-0.518;2023-10-09T06:56:21;101199.97;;;19.69;52.24
39435;BME280;66825;51.880;-0.518;2023-10-09T06:58:50;101212.75;;;19.74;52.01
39435;BME280;66825;51.880;-0.518;2023-10-09T07:01:20;101208.56;;;19.62;52.31
39435;BME280;66825;51.880;-0.518;2023-10-09T07:03:50;101243.88;;;19.78;52.19
39435;BME280;66825;51.880;-0.518;2023-10-09T07:06:19;101239.31;;;19.73;52.28
39435;BME280;66825;51.880;-0.518;2023-10-09T07:09:00;101237.00;;;19.61;52.17
39435;BME280;66825;51.880;-0.518;2023-10-09T07:11:33;101272.56;;;19.80;52.20
39435;BME280;66825;51.880;-0.518;2023-10-09T07:14:04;101261.63;;;19.80;52.21
39435;BME280;66825;51.880;-0.518;2023-10-09T07:16:32;101248.75;;;19.81;52.32
39435;BME280;66825;51.880;-0.518;2023-10-09T07:19:07;101251.22;;;19.82;52.20
39435;BME280;66825;51.880;-0.518;2023-10-09T07:21:50;101252.81;;;19.83;52.06
39435;BME280;66825;51.880;-0.518;2023-10-09T07:24:22;101267.88;;;19.86;52.08
39435;BME280;66825;51.880;-0.518;2023-10-09T07:27:05;101258.53;;;19.87;52.07
39435;BME280;66825;51.880;-0.518;2023-10-09T07:29:37;101261.00;;;19.89;52.18
39435;BME280;66825;51.880;-0.518;2023-10-09T07:32:16;101188.69;;;19.38;51.99
39435;BME280;66825;51.880;-0.518;2023-10-09T07:34:50;101271.09;;;19.88;52.01
39435;BME280;66825;51.880;-0.518;2023-10-09T07:37:23;101278.19;;;19.89;51.96
39435;BME280;66825;51.880;-0.518;2023-10-09T07:39:51;101243.88;;;19.78;52.04
39435;BME280;66825;51.880;-0.518;2023-10-09T07:42:24;101272.06;;;19.97;52.06
39435;BME280;66825;51.880;-0.518;2023-10-09T07:44:59;101263.56;;;19.99;51.98
39435;BME280;66825;51.880;-0.518;2023-10-09T07:47:37;101273.38;;;20.00;52.02
39435;BME280;66825;51.880;-0.518;2023-10-09T07:50:27;101283.75;;;20.03;52.05
39435;BME280;66825;51.880;-0.518;2023-10-09T07:53:16;101286.19;;;20.05;51.92
39435;BME280;66825;51.880;-0.518;2023-10-09T07:55:55;101269.53;;;20.01;51.85
39435;BME280;66825;51.880;-0.518;2023-10-09T07:58:22;101196.31;;;19.60;51.79
39435;BME280;66825;51.880;-0.518;2023-10-09T08:00:59;101261.88;;;20.03;51.83
39435;BME280;66825;51.880;-0.518;2023-10-09T08:03:48;101236.38;;;19.89;51.95
39435;BME280;66825;51.880;-0.518;2023-10-09T08:06:25;101264.22;;;20.10;51.96
39435;BME280;66825;51.880;-0.518;2023-10-09T08:09:06;101261.63;;;20.19;52.19
39435;BME280;66825;51.880;-0.518;2023-10-09T08:11:47;101260.22;;;20.21;52.31
39435;BME280;66825;51.880;-0.518;2023-10-09T08:14:13;101245.06;;;20.10;52.54
39435;BME280;66825;51.880;-0.518;2023-10-09T08:16:57;101283.66;;;20.27;52.39
39435;BME280;66825;51.880;-0.518;2023-10-09T08:19:45;101281.66;;;20.33;52.42
39435;BME280;66825;51.880;-0.518;2023-10-09T08:22:28;101279.63;;;20.39;52.40
39435;BME280;66825;51.880;-0.518;2023-10-09T08:24:54;101275.19;;;20.43;52.15
39435;BME280;66825;51.880;-0.518;2023-10-09T08:27:27;101269.63;;;20.48;52.27
39435;BME280;66825;51.880;-0.518;2023-10-09T08:30:05;101270.13;;;20.50;52.12
39435;BME280;66825;51.880;-0.518;2023-10-09T08:32:57;101286.97;;;20.57;51.90
39435;BME280;66825;51.880;-0.518;2023-10-09T08:35:31;101301.91;;;20.65;52.19
39435;BME280;66825;51.880;-0.518;2023-10-09T08:38:13;101286.75;;;20.73;51.99
39435;BME280;66825;51.880;-0.518;2023-10-09T08:40:41;101299.81;;;20.76;52.05
39435;BME280;66825;51.880;-0.518;2023-10-09T08:43:13;101312.31;;;20.82;51.85
39435;BME280;66825;51.880;-0.518;2023-10-09T08:45:45;101293.13;;;20.82;51.47
39435;BME280;66825;51.880;-0.518;2023-10-09T08:48:12;101261.00;;;20.74;51.43
39435;BME280;66825;51.880;-0.518;2023-10-09T08:50:44;101296.22;;;20.94;51.38
39435;BME280;66825;51.880;-0.518;2023-10-09T08:53:11;101307.66;;;20.97;51.13
39435;BME280;66825;51.880;-0.518;2023-10-09T08:55:37;101283.00;;;20.83;51.60
39435;BME280;66825;51.880;-0.518;2023-10-09T08:58:04;101308.19;;;20.99;51.44
39435;BME280;66825;51.880;-0.518;2023-10-09T09:00:46;101294.91;;;20.92;51.42
39435;BME280;66825;51.880;-0.518;2023-10-09T09:03:16;101307.88;;;21.00;51.20
39435;BME280;66825;51.880;-0.518;2023-10-09T09:06:02;101310.81;;;21.04;51.29
39435;BME280;66825;51.880;-0.518;2023-10-09T09:08:29;101296.53;;;21.07;51.17
39435;BME280;66825;51.880;-0.518;2023-10-09T09:16:25;101302.81;;;21.21;50.99
39435;BME280;66825;51.880;-0.518;2023-10-09T09:19:01;101316.50;;;21.21;50.65
39435;BME280;66825;51.880;-0.518;2023-10-09T09:21:38;101321.41;;;21.24;50.75
39435;BME280;66825;51.880;-0.518;2023-10-09T09:24:13;101310.44;;;21.24;50.43
39435;BME280;66825;51.880;-0.518;2023-10-09T09:26:42;101309.00;;;21.27;50.76
39435;BME280;66825;51.880;-0.518;2023-10-09T09:29:14;101320.19;;;21.31;50.68
39435;BME280;66825;51.880;-0.518;2023-10-09T09:31:54;101300.06;;;21.21;50.59
39435;BME280;66825;51.880;-0.518;2023-10-09T09:34:22;101289.94;;;21.22;50.58
39435;BME280;66825;51.880;-0.518;2023-10-09T09:36:58;101309.94;;;21.36;51.19
39435;BME280;66825;51.880;-0.518;2023-10-09T09:39:27;101312.06;;;21.39;50.44
39435;BME280;66825;51.880;-0.518;2023-10-09T09:42:00;101305.78;;;21.39;50.38
39435;BME280;66825;51.880;-0.518;2023-10-09T09:44:55;101307.28;;;21.45;50.40
39435;BME280;66825;51.880;-0.518;2023-10-09T09:47:21;101298.94;;;21.50;50.32
39435;BME280;66825;51.880;-0.518;2023-10-09T09:49:53;101306.06;;;21.51;49.98
39435;BME280;66825;51.880;-0.518;2023-10-09T09:52:31;101298.81;;;21.55;50.05
39435;BME280;66825;51.880;-0.518;2023-10-09T09:55:08;101299.06;;;21.59;50.09
39435;BME280;66825;51.880;-0.518;2023-10-09T09:57:47;101294.91;;;21.62;49.95
39435;BME280;66825;51.880;-0.518;2023-10-09T10:00:19;101282.19;;;21.66;49.81
39435;BME280;66825;51.880;-0.518;2023-10-09T10:03:18;101277.69;;;21.70;50.14
39435;BME280;66825;51.880;-0.518;2023-10-09T10:05:45;101283.91;;;21.76;49.85
39435;BME280;66825;51.880;-0.518;2023-10-09T10:08:18;101281.06;;;21.81;49.65
39435;BME280;66825;51.880;-0.518;2023-10-09T10:10:46;101264.38;;;21.77;49.73
39435;BME280;66825;51.880;-0.518;2023-10-09T10:16:09;101282.25;;;21.88;49.84
39435;BME280;66825;51.880;-0.518;2023-10-09T10:18:58;101298.69;;;21.88;49.91
39435;BME280;66825;51.880;-0.518;2023-10-09T10:21:36;101221.78;;;21.43;49.72
39435;BME280;66825;51.880;-0.518;2023-10-09T10:27:24;101268.22;;;21.90;49.65
39435;BME280;66825;51.880;-0.518;2023-10-09T10:35:20;101259.69;;;21.92;49.75
39435;BME280;66825;51.880;-0.518;2023-10-09T10:37:58;101265.97;;;21.92;50.02
39435;BME280;66825;51.880;-0.518;2023-10-09T10:40:49;101228.72;;;21.77;50.39
39435;BME280;66825;51.880;-0.518;2023-10-09T10:43:26;101235.28;;;21.90;50.34
39435;BME280;66825;51.880;-0.518;2023-10-09T10:46:07;101258.19;;;22.08;49.91
39435;BME280;66825;51.880;-0.518;2023-10-09T10:48:54;101260.94;;;22.08;49.65
39435;BME280;66825;51.880;-0.518;2023-10-09T10:51:35;101251.25;;;22.11;49.64
39435;BME280;66825;51.880;-0.518;2023-10-09T10:54:03;101252.09;;;22.11;49.81
39435;BME280;66825;51.880;-0.518;2023-10-09T10:56:48;101257.25;;;22.13;49.86
39435;BME280;66825;51.880;-0.518;2023-10-09T10:59:14;101269.06;;;22.13;49.90
39435;BME280;66825;51.880;-0.518;2023-10-09T11:01:48;101267.09;;;22.14;49.88
39435;BME280;66825;51.880;-0.518;2023-10-09T11:04:27;101273.41;;;22.14;49.83
39435;BME280;66825;51.880;-0.518;2023-10-09T11:06:54;101250.09;;;22.03;49.93
39435;BME280;66825;51.880;-0.518;2023-10-09T11:09:26;101276.13;;;22.14;50.02
39435;BME280;66825;51.880;-0.518;2023-10-09T11:12:05;101280.50;;;22.15;50.32
39435;BME280;66825;51.880;-0.518;2023-10-09T11:14:47;101268.75;;;22.15;50.38
39435;BME280;66825;51.880;-0.518;2023-10-09T11:17:40;101268.41;;;22.16;50.40
39435;BME280;66825;51.880;-0.518;2023-10-09T11:20:06;101261.94;;;22.12;50.49
39435;BME280;66825;51.880;-0.518;2023-10-09T11:22:57;101267.31;;;22.17;50.22
39435;BME280;66825;51.880;-0.518;2023-10-09T11:25:43;101256.75;;;22.11;50.56
39435;BME280;66825;51.880;-0.518;2023-10-09T11:28:33;101265.06;;;22.19;50.38
39435;BME280;66825;51.880;-0.518;2023-10-09T11:31:14;101261.81;;;22.17;50.52
39435;BME280;66825;51.880;-0.518;2023-10-09T11:33:50;101265.53;;;22.21;50.50
39435;BME280;66825;51.880;-0.518;2023-10-09T11:36:23;101258.94;;;22.23;50.48
39435;BME280;66825;51.880;-0.518;2023-10-09T11:38:58;101269.63;;;22.24;50.66
39435;BME280;66825;51.880;-0.518;2023-10-09T11:41:43;101257.81;;;22.24;50.73
39435;BME280;66825;51.880;-0.518;2023-10-09T11:44:10;101257.00;;;22.23;50.61
39435;BME280;66825;51.880;-0.518;2023-10-09T11:47:07;101262.19;;;22.25;51.02
39435;BME280;66825;51.880;-0.518;2023-10-09T11:49:56;101262.38;;;22.28;50.89
39435;BME280;66825;51.880;-0.518;2023-10-09T11:52:32;101161.72;;;21.69;50.97
39435;BME280;66825;51.880;-0.518;2023-10-09T11:55:06;101254.63;;;22.30;51.10
39435;BME280;66825;51.880;-0.518;2023-10-09T11:57:32;101256.25;;;22.31;50.91
39435;BME280;66825;51.880;-0.518;2023-10-09T12:00:03;101256.44;;;22.35;51.22
39435;BME280;66825;51.880;-0.518;2023-10-09T12:02:52;101229.56;;;22.23;51.04
39435;BME280;66825;51.880;-0.518;2023-10-09T12:05:18;101245.16;;;22.36;51.00
39435;BME280;66825;51.880;-0.518;2023-10-09T12:07:45;101218.28;;;22.25;50.78
39435;BME280;66825;51.880;-0.518;2023-10-09T12:10:10;101241.00;;;22.39;50.81
39435;BME280;66825;51.880;-0.518;2023-10-09T12:12:40;101243.41;;;22.41;50.79
39435;BME280;66825;51.880;-0.518;2023-10-09T12:15:12;101236.81;;;22.42;50.78
39435;BME280;66825;51.880;-0.518;2023-10-09T12:17:44;101233.72;;;22.43;50.76
39435;BME280;66825;51.880;-0.518;2023-10-09T12:20:13;101226.00;;;22.45;50.68
39435;BME280;66825;51.880;-0.518;2023-10-09T12:22:56;101226.84;;;22.46;50.48
39435;BME280;66825;51.880;-0.518;2023-10-09T12:25:23;101242.19;;;22.47;50.75
39435;BME280;66825;51.880;-0.518;2023-10-09T12:27:49;101147.09;;;21.97;50.68
39435;BME280;66825;51.880;-0.518;2023-10-09T12:30:14;101221.81;;;22.48;50.72
39435;BME280;66825;51.880;-0.518;2023-10-09T12:32:40;101219.91;;;22.48;50.64
39435;BME280;66825;51.880;-0.518;2023-10-09T12:35:06;101145.50;;;22.04;50.59
39435;BME280;66825;51.880;-0.518;2023-10-09T12:37:43;101197.94;;;22.48;50.66
39435;BME280;66825;51.880;-0.518;2023-10-09T12:40:09;101202.47;;;22.53;50.62
39435;BME280;66825;51.880;-0.518;2023-10-09T12:42:36;101197.16;;;22.57;50.75
39435;BME280;66825;51.880;-0.518;2023-10-09T12:45:03;101189.41;;;22.59;50.80
39435;BME280;66825;51.880;-0.518;2023-10-09T12:47:34;101191.84;;;22.60;50.86
39435;BME280;66825;51.880;-0.518;2023-10-09T12:50:04;101199.25;;;22.60;50.85
39435;BME280;66825;51.880;-0.518;2023-10-09T12:52:35;101209.81;;;22.66;50.80
39435;BME280;66825;51.880;-0.518;2023-10-09T12:55:03;101201.22;;;22.68;50.83
39435;BME280;66825;51.880;-0.518;2023-10-09T12:57:32;101196.25;;;22.70;50.75
39435;BME280;66825;51.880;-0.518;2023-10-09T12:59:57;101201.41;;;22.72;50.80
39435;BME280;66825;51.880;-0.518;2023-10-09T13:02:23;101191.06;;;22.68;50.83
39435;BME280;66825;51.880;-0.518;2023-10-09T13:04:55;101204.84;;;22.77;50.64
39435;BME280;66825;51.880;-0.518;2023-10-09T13:07:21;101200.13;;;22.78;50.80
39435;BME280;66825;51.880;-0.518;2023-10-09T13:09:48;101197.56;;;22.81;51.08
39435;BME280;66825;51.880;-0.518;2023-10-09T13:12:32;101189.19;;;22.87;51.01
39435;BME280;66825;51.880;-0.518;2023-10-09T13:14:58;101187.41;;;22.91;50.86
39435;BME280;66825;51.880;-0.518;2023-10-09T13:17:23;101186.78;;;22.94;50.85
39435;BME280;66825;51.880;-0.518;2023-10-09T13:19:52;101190.50;;;22.98;50.76
39435;BME280;66825;51.880;-0.518;2023-10-09T13:22:18;101194.06;;;22.98;50.60
39435;BME280;66825;51.880;-0.518;2023-10-09T13:24:43;101191.81;;;23.00;50.71
39435;BME280;66825;51.880;-0.518;2023-10-09T13:27:13;101196.50;;;23.00;50.50
39435;BME280;66825;51.880;-0.518;2023-10-09T13:29:47;101201.34;;;23.03;50.41
39435;BME280;66825;51.880;-0.518;2023-10-09T13:32:13;101196.34;;;23.05;50.54
39435;BME280;66825;51.880;-0.518;2023-10-09T13:34:40;101187.94;;;23.02;50.65
39435;BME280;66825;51.880;-0.518;2023-10-09T13:37:14;101187.78;;;23.07;50.74
39435;BME280;66825;51.880;-0.518;2023-10-09T13:39:44;101180.50;;;23.02;50.93
39435;BME280;66825;51.880;-0.518;2023-10-09T13:42:19;101094.09;;;22.50;50.91
39435;BME280;66825;51.880;-0.518;2023-10-09T13:44:44;101180.81;;;23.09;50.92
39435;BME280;66825;51.880;-0.518;2023-10-09T13:47:09;101168.69;;;23.02;51.02
39435;BME280;66825;51.880;-0.518;2023-10-09T13:49:47;101118.84;;;22.77;51.13
39435;BME280;66825;51.880;-0.518;2023-10-09T13:52:18;101128.09;;;22.90;51.01
39435;BME280;66825;51.880;-0.518;2023-10-09T13:54:44;101148.66;;;23.01;51.04
39435;BME280;66825;51.880;-0.518;2023-10-09T13:57:13;101140.88;;;22.94;51.27
39435;BME280;66825;51.880;-0.518;2023-10-09T13:59:40;101164.53;;;23.13;51.17
39435;BME280;66825;51.880;-0.518;2023-10-09T14:02:17;101170.81;;;23.13;51.19
39435;BME280;66825;51.880;-0.518;2023-10-09T14:04:45;101175.19;;;23.14;51.49
39435;BME280;66825;51.880;-0.518;2023-10-09T14:07:11;101076.97;;;22.53;51.54
39435;BME280;66825;51.880;-0.518;2023-10-09T14:09:42;101174.88;;;23.16;51.77
39435;BME280;66825;51.880;-0.518;2023-10-09T14:12:21;101162.78;;;23.17;51.68
39435;BME280;66825;51.880;-0.518;2023-10-09T14:14:47;101170.19;;;23.16;51.76
39435;BME280;66825;51.880;-0.518;2023-10-09T14:17:20;101165.19;;;23.19;51.51
39435;BME280;66825;51.880;-0.518;2023-10-09T14:19:51;101159.41;;;23.20;51.71
39435;BME280;66825;51.880;-0.518;2023-10-09T14:22:19;101086.22;;;22.75;51.47
39435;BME280;66825;51.880;-0.518;2023-10-09T14:24:45;101157.28;;;23.26;51.44
39435;BME280;66825;51.880;-0.518;2023-10-09T14:27:12;101150.16;;;23.25;51.44
39435;BME280;66825;51.880;-0.518;2023-10-09T14:29:47;101149.19;;;23.29;51.77
39435;BME280;66825;51.880;-0.518;2023-10-09T14:32:13;101145.00;;;23.32;51.50
39435;BME280;66825;51.880;-0.518;2023-10-09T14:34:39;101128.16;;;23.25;51.46
39435;BME280;66825;51.880;-0.518;2023-10-09T14:37:09;101106.84;;;23.22;51.45
39435;BME280;66825;51.880;-0.518;2023-10-09T14:39:39;101130.28;;;23.37;51.85
39435;BME280;66825;51.880;-0.518;2023-10-09T14:42:05;101128.66;;;23.36;51.88